createdAt,value
2023-01-17T00:06:21.676Z,7.93
2023-01-17T00:21:24.045Z,7.47
2023-01-17T00:36:26.257Z,7.68
2023-01-17T00:51:28.585Z,7.32
2023-01-17T01:06:30.993Z,7.55
2023-01-17T01:21:33.423Z,7.27
2023-01-17T01:36:35.683Z,7.16
2023-01-17T01:51:38.023Z,7.18
2023-01-17T02:06:40.553Z,6.99
2023-01-17T02:21:43.217Z,6.81
2023-01-17T02:36:45.633Z,6.72
2023-01-17T02:51:48.010Z,6.38
2023-01-17T03:06:50.232Z,6.69
2023-01-17T03:21:52.658Z,6.67
2023-01-17T03:36:55.093Z,6.44
2023-01-17T03:51:57.314Z,6.39
2023-01-17T04:06:59.871Z,6.37
2023-01-17T04:22:02.179Z,6.38
2023-01-17T04:37:04.371Z,6.47
2023-01-17T04:52:06.786Z,6.28
2023-01-17T05:07:09.105Z,6.47
2023-01-17T05:22:11.317Z,6.17
2023-01-17T05:37:13.539Z,6.12
2023-01-17T05:52:15.777Z,6.03
2023-01-17T06:07:17.943Z,6.57
2023-01-17T06:22:20.192Z,6.2
2023-01-17T06:37:22.454Z,6.18
2023-01-17T06:52:24.668Z,5.93
2023-01-17T07:07:27.206Z,5.72
2023-01-17T07:22:29.474Z,6.09
2023-01-17T07:37:31.825Z,5.99
2023-01-17T07:52:34.048Z,6.3
2023-01-17T08:07:36.493Z,6.05
2023-01-17T08:22:39.050Z,6.1
2023-01-17T08:37:41.355Z,6.05
2023-01-17T08:52:43.681Z,5.96
2023-01-17T09:07:47.629Z,6.27
2023-01-17T09:22:49.972Z,6.26
2023-01-17T09:37:52.206Z,6
2023-01-17T09:52:54.420Z,5.99
2023-01-17T10:07:56.664Z,6.17
2023-01-17T10:22:58.903Z,5.92
2023-01-17T10:38:01.280Z,6.03
2023-01-17T10:53:03.669Z,6.09
2023-01-17T11:08:05.897Z,6.06
2023-01-17T11:23:08.141Z,5.81
2023-01-17T11:38:10.374Z,6.12
2023-01-17T11:53:12.741Z,5.61
2023-01-17T12:08:14.941Z,5.82
2023-01-17T12:23:17.218Z,5.98
2023-01-17T12:38:31.728Z,5.92
2023-01-17T12:53:34.673Z,5.88
2023-01-17T13:08:36.960Z,5.96
2023-01-17T13:23:39.167Z,5.82
2023-01-17T13:38:41.428Z,5.92
2023-01-17T13:53:43.687Z,5.85
2023-01-17T14:08:45.927Z,5.98
2023-01-17T14:23:48.220Z,5.81
2023-01-17T14:38:50.454Z,5.73
2023-01-17T14:53:52.684Z,5.73
2023-01-17T15:08:54.935Z,5.51
2023-01-17T15:23:57.291Z,5.88
2023-01-17T15:38:59.670Z,5.74
2023-01-17T15:54:02.059Z,5.79
2023-01-17T16:09:04.291Z,5.79
2023-01-17T16:24:06.498Z,5.9
2023-01-17T16:39:08.750Z,5.73
2023-01-17T16:54:11.096Z,5.78
2023-01-17T17:09:13.345Z,6.07
2023-01-17T17:24:15.786Z,6.47
2023-01-17T17:39:18.019Z,5.93
2023-01-17T17:54:20.336Z,5.99
2023-01-17T18:09:22.691Z,6.08
2023-01-17T18:24:24.946Z,6.18
2023-01-17T18:39:27.272Z,6.4
2023-01-17T18:54:29.555Z,6.31
2023-01-17T19:09:31.825Z,6.42
2023-01-17T19:24:34.143Z,6.76
2023-01-17T19:39:36.502Z,6.85
2023-01-17T19:54:38.872Z,6.95
2023-01-17T20:09:41.130Z,7.05
2023-01-17T20:24:43.556Z,7.12
2023-01-17T20:39:45.864Z,7.22
2023-01-17T20:54:48.113Z,7.43
2023-01-17T21:09:50.435Z,7.51
2023-01-17T21:24:52.772Z,7.54
2023-01-17T21:39:55.103Z,7.64
2023-01-17T21:54:57.374Z,7.72
2023-01-17T22:09:59.775Z,7.45
2023-01-17T22:25:02.197Z,7.47
2023-01-17T22:40:05.253Z,7.74
2023-01-17T22:55:07.748Z,7.94
2023-01-17T23:10:10.016Z,7.67
2023-01-17T23:25:12.532Z,6.52
2023-01-17T23:40:14.725Z,6.72
2023-01-17T23:55:16.952Z,6.45
